createdAt,value
2022-07-30T00:01:23.576Z,27.92
2022-07-30T00:03:50.056Z,27.87
2022-07-30T00:06:18.113Z,27.85
2022-07-30T00:08:44.532Z,27.89
2022-07-30T00:11:10.945Z,27.88
2022-07-30T00:13:37.371Z,27.86
2022-07-30T00:16:03.779Z,27.85
2022-07-30T00:18:30.247Z,27.87
2022-07-30T00:20:56.892Z,27.84
2022-07-30T00:23:23.300Z,27.87
2022-07-30T00:25:49.715Z,27.85
2022-07-30T00:28:16.113Z,27.89
2022-07-30T00:30:42.551Z,27.93
2022-07-30T00:33:08.988Z,27.87
2022-07-30T00:35:35.392Z,27.83
2022-07-30T00:38:01.809Z,27.88
2022-07-30T00:40:28.227Z,27.83
2022-07-30T00:42:54.642Z,27.84
2022-07-30T00:45:21.068Z,27.85
2022-07-30T00:47:47.467Z,27.83
2022-07-30T00:50:13.877Z,27.84
2022-07-30T00:52:40.301Z,27.78
2022-07-30T00:55:06.712Z,27.83
2022-07-30T00:57:33.120Z,27.80
2022-07-30T01:00:01.243Z,27.85
2022-07-30T01:02:27.704Z,27.84
2022-07-30T01:04:54.129Z,27.81
2022-07-30T01:07:20.539Z,27.84
2022-07-30T01:09:50.391Z,27.82
2022-07-30T01:12:16.811Z,27.82
2022-07-30T01:14:43.237Z,27.78
2022-07-30T01:17:09.652Z,27.82
2022-07-30T01:19:36.153Z,27.82
2022-07-30T01:22:02.548Z,27.81
2022-07-30T01:24:28.964Z,27.81
2022-07-30T01:26:55.381Z,27.79
2022-07-30T01:29:21.780Z,27.80
2022-07-30T01:31:48.248Z,27.78
2022-07-30T01:34:14.710Z,27.78
2022-07-30T01:36:41.125Z,27.80
2022-07-30T01:39:07.537Z,27.77
2022-07-30T01:41:33.940Z,27.78
2022-07-30T01:44:00.362Z,27.77
2022-07-30T01:46:26.842Z,27.77
2022-07-30T01:48:53.318Z,27.72
2022-07-30T01:51:19.759Z,27.72
2022-07-30T01:53:46.167Z,27.74
2022-07-30T01:56:12.561Z,27.75
2022-07-30T01:58:43.148Z,27.75
2022-07-30T02:01:09.653Z,27.77
2022-07-30T02:03:36.176Z,27.72
2022-07-30T02:06:02.593Z,27.73
2022-07-30T02:08:29.012Z,27.72
2022-07-30T02:10:55.420Z,27.71
2022-07-30T02:13:21.822Z,27.74
2022-07-30T02:15:48.225Z,27.72
2022-07-30T02:18:14.647Z,27.69
2022-07-30T02:20:41.046Z,27.72
2022-07-30T02:23:07.467Z,27.66
2022-07-30T02:25:33.877Z,27.67
2022-07-30T02:28:00.382Z,27.64
2022-07-30T02:30:26.795Z,27.71
2022-07-30T02:32:53.203Z,27.72
2022-07-30T02:35:19.608Z,27.66
2022-07-30T02:37:46.100Z,27.64
2022-07-30T02:40:12.505Z,27.66
2022-07-30T02:42:38.910Z,27.69
2022-07-30T02:45:05.330Z,27.74
2022-07-30T02:47:31.785Z,27.70
2022-07-30T02:49:58.204Z,27.71
2022-07-30T02:52:24.619Z,27.69
2022-07-30T02:54:51.031Z,27.69
2022-07-30T02:57:17.451Z,27.66
2022-07-30T02:59:43.864Z,27.71
2022-07-30T03:02:10.340Z,27.66
2022-07-30T03:04:36.822Z,27.68
2022-07-30T03:07:07.936Z,27.66
2022-07-30T03:09:51.460Z,27.65
2022-07-30T03:12:18.981Z,27.62
2022-07-30T03:14:45.413Z,27.64
2022-07-30T03:17:11.815Z,27.74
2022-07-30T03:19:38.212Z,27.68
2022-07-30T03:22:04.644Z,27.64
2022-07-30T03:24:31.049Z,27.60
2022-07-30T03:26:57.605Z,27.62
2022-07-30T03:29:24.156Z,27.64
2022-07-30T03:31:50.681Z,27.62
2022-07-30T03:34:17.121Z,27.60
2022-07-30T03:36:44.386Z,27.58
2022-07-30T03:39:10.913Z,27.59
2022-07-30T03:41:37.337Z,27.55
2022-07-30T03:44:04.951Z,27.64
2022-07-30T03:46:31.405Z,27.63
2022-07-30T03:48:57.892Z,27.62
2022-07-30T03:51:24.343Z,27.60
2022-07-30T03:53:50.761Z,27.58
2022-07-30T03:56:17.203Z,27.60
2022-07-30T03:58:43.620Z,27.59
2022-07-30T04:01:10.031Z,27.58
2022-07-30T04:03:36.493Z,27.58
2022-07-30T04:06:02.954Z,27.60
2022-07-30T04:08:29.359Z,27.61
2022-07-30T04:10:55.783Z,27.63
2022-07-30T04:13:22.190Z,27.54
2022-07-30T04:16:05.826Z,27.49
2022-07-30T04:18:35.008Z,27.51
2022-07-30T04:21:01.426Z,27.60
2022-07-30T04:23:27.836Z,27.55
2022-07-30T04:25:54.241Z,27.59
2022-07-30T04:28:20.649Z,27.59
2022-07-30T04:30:47.060Z,27.61
2022-07-30T04:33:13.470Z,27.61
2022-07-30T04:35:51.668Z,27.57
2022-07-30T04:38:18.559Z,27.59
2022-07-30T04:40:44.974Z,27.56
2022-07-30T04:43:11.371Z,27.54
2022-07-30T04:45:37.777Z,27.55
2022-07-30T04:48:04.208Z,27.53
2022-07-30T04:50:30.615Z,27.56
2022-07-30T04:52:57.029Z,27.60
2022-07-30T04:55:23.442Z,27.57
2022-07-30T04:57:49.886Z,27.57
2022-07-30T05:00:16.292Z,27.56
2022-07-30T05:02:42.697Z,27.58
2022-07-30T05:05:09.148Z,27.58
2022-07-30T05:07:35.586Z,27.60
2022-07-30T05:10:01.988Z,27.59
2022-07-30T05:12:28.396Z,27.60
2022-07-30T05:14:54.822Z,27.65
2022-07-30T05:17:21.229Z,27.63
2022-07-30T05:19:47.638Z,27.64
2022-07-30T05:22:14.790Z,27.66
2022-07-30T05:24:41.208Z,27.57
2022-07-30T05:27:07.608Z,27.60
2022-07-30T05:29:34.015Z,27.60
2022-07-30T05:32:02.556Z,27.59
2022-07-30T05:34:29.968Z,27.58
2022-07-30T05:36:56.374Z,27.56
2022-07-30T05:39:22.817Z,27.54
2022-07-30T05:41:49.220Z,27.46
2022-07-30T05:44:15.627Z,27.23
2022-07-30T05:46:42.182Z,27.25
2022-07-30T05:49:08.692Z,27.14
2022-07-30T05:51:35.137Z,27.13
2022-07-30T05:54:01.548Z,27.10
2022-07-30T05:56:27.953Z,27.02
2022-07-30T05:58:54.352Z,27.11
2022-07-30T06:01:20.824Z,27.17
2022-07-30T06:03:47.276Z,26.82
2022-07-30T06:06:13.682Z,26.37
2022-07-30T06:08:40.098Z,26.69
2022-07-30T06:11:06.516Z,26.81
2022-07-30T06:13:32.915Z,26.80
2022-07-30T06:15:59.377Z,26.78
2022-07-30T06:18:25.839Z,26.89
2022-07-30T06:20:52.458Z,26.86
2022-07-30T06:23:18.940Z,26.86
2022-07-30T06:25:45.351Z,26.82
2022-07-30T06:28:35.869Z,26.78
2022-07-30T06:30:58.234Z,26.78
2022-07-30T06:33:24.703Z,26.77
2022-07-30T06:35:51.115Z,26.80
2022-07-30T06:38:17.513Z,26.80
2022-07-30T06:40:43.942Z,26.89
2022-07-30T06:43:10.351Z,26.92
2022-07-30T06:45:36.763Z,26.95
2022-07-30T06:48:03.181Z,27.01
2022-07-30T06:50:29.595Z,27.03
2022-07-30T06:52:55.998Z,27.02
2022-07-30T06:55:22.388Z,27.00
2022-07-30T06:57:48.821Z,26.97
2022-07-30T07:00:15.224Z,26.99
2022-07-30T07:02:41.630Z,26.97
2022-07-30T07:05:08.041Z,27.03
2022-07-30T07:07:41.919Z,27.01
2022-07-30T07:10:10.794Z,26.95
2022-07-30T07:12:37.209Z,27.02
2022-07-30T07:15:03.627Z,27.04
2022-07-30T07:17:30.068Z,27.07
2022-07-30T07:19:59.782Z,27.04
2022-07-30T07:22:28.632Z,27.06
2022-07-30T07:24:55.045Z,27.07
2022-07-30T07:27:21.453Z,27.07
2022-07-30T07:30:00.985Z,27.01
2022-07-30T07:32:31.595Z,27.08
2022-07-30T07:34:57.998Z,27.10
2022-07-30T07:37:24.413Z,27.15
2022-07-30T07:39:50.808Z,27.20
2022-07-30T07:42:17.209Z,27.14
2022-07-30T07:44:43.616Z,27.09
2022-07-30T07:47:10.022Z,27.09
2022-07-30T07:49:36.436Z,27.08
2022-07-30T07:52:02.836Z,27.09
2022-07-30T07:54:29.231Z,27.05
2022-07-30T07:56:55.682Z,26.96
2022-07-30T07:59:22.098Z,26.87
2022-07-30T08:01:49.874Z,26.84
2022-07-30T08:04:16.430Z,26.82
2022-07-30T08:06:43.132Z,26.78
2022-07-30T08:09:09.630Z,26.90
2022-07-30T08:11:36.029Z,26.86
2022-07-30T08:14:02.521Z,26.92
2022-07-30T08:16:28.956Z,26.88
2022-07-30T08:18:55.422Z,26.70
2022-07-30T08:21:21.899Z,26.76
2022-07-30T08:23:48.308Z,26.84
2022-07-30T08:26:14.722Z,26.83
2022-07-30T08:28:41.129Z,26.91
2022-07-30T08:31:07.550Z,26.98
2022-07-30T08:33:34.006Z,26.94
2022-07-30T08:36:04.117Z,26.97
2022-07-30T08:38:35.410Z,26.87
2022-07-30T08:41:01.829Z,26.88
2022-07-30T08:43:28.230Z,26.99
2022-07-30T08:45:54.633Z,26.95
2022-07-30T08:48:21.031Z,26.98
2022-07-30T08:50:47.442Z,27.06
2022-07-30T08:53:13.857Z,27.02
2022-07-30T08:55:40.266Z,27.07
2022-07-30T08:58:06.687Z,27.10
2022-07-30T09:00:33.104Z,27.18
2022-07-30T09:02:59.500Z,27.20
2022-07-30T09:05:25.915Z,27.23
2022-07-30T09:07:52.341Z,27.23
2022-07-30T09:10:18.784Z,27.24
2022-07-30T09:12:45.236Z,27.19
2022-07-30T09:15:11.637Z,27.15
2022-07-30T09:17:38.045Z,27.16
2022-07-30T09:20:04.451Z,27.21
2022-07-30T09:22:30.958Z,27.25
2022-07-30T09:24:57.368Z,27.26
2022-07-30T09:27:23.760Z,27.27
2022-07-30T09:29:50.173Z,27.30
2022-07-30T09:32:16.586Z,27.29
2022-07-30T09:34:42.997Z,27.31
2022-07-30T09:37:09.410Z,27.30
2022-07-30T09:39:35.825Z,27.28
2022-07-30T09:42:02.537Z,27.32
2022-07-30T09:44:29.232Z,27.31
2022-07-30T09:46:55.630Z,27.37
2022-07-30T09:49:22.102Z,27.39
2022-07-30T09:51:56.251Z,27.37
2022-07-30T09:54:33.240Z,27.37
2022-07-30T09:57:00.802Z,27.38
2022-07-30T09:59:28.388Z,27.42
2022-07-30T10:02:04.109Z,27.40
2022-07-30T10:04:36.467Z,27.46
2022-07-30T10:07:07.011Z,27.47
2022-07-30T10:09:33.438Z,27.46
2022-07-30T10:12:04.244Z,27.51
2022-07-30T10:14:32.119Z,27.52
2022-07-30T10:16:58.832Z,27.52
2022-07-30T10:19:39.778Z,27.54
2022-07-30T10:22:08.128Z,27.56
2022-07-30T10:24:34.549Z,27.57
2022-07-30T10:27:01.141Z,27.58
2022-07-30T10:29:33.553Z,27.57
2022-07-30T10:32:00.540Z,27.58
2022-07-30T10:34:31.327Z,27.61
2022-07-30T10:37:01.705Z,27.63
2022-07-30T10:39:34.709Z,27.63
2022-07-30T10:42:01.319Z,27.64
2022-07-30T10:44:27.733Z,27.64
2022-07-30T10:46:54.505Z,27.64
2022-07-30T10:49:23.995Z,27.67
2022-07-30T10:51:50.758Z,27.68
2022-07-30T10:54:17.156Z,27.69
2022-07-30T10:56:45.326Z,27.67
2022-07-30T10:59:11.744Z,27.62
2022-07-30T11:01:41.423Z,27.63
2022-07-30T11:04:11.925Z,27.65
2022-07-30T11:06:38.329Z,27.64
2022-07-30T11:09:04.741Z,27.68
2022-07-30T11:12:02.255Z,27.66
2022-07-30T11:14:17.533Z,27.64
2022-07-30T11:16:46.834Z,27.70
2022-07-30T11:19:55.753Z,27.72
2022-07-30T11:21:59.901Z,27.75
2022-07-30T11:24:26.481Z,27.75
2022-07-30T11:26:52.877Z,27.75
2022-07-30T11:29:19.937Z,27.77
2022-07-30T11:32:00.946Z,27.79
2022-07-30T11:34:30.763Z,27.78
2022-07-30T11:36:57.510Z,27.75
2022-07-30T11:39:23.912Z,27.70
2022-07-30T11:42:00.054Z,27.74
2022-07-30T11:44:26.715Z,27.73
2022-07-30T11:46:53.134Z,27.72
2022-07-30T11:49:19.562Z,27.72
2022-07-30T11:51:46.043Z,27.77
2022-07-30T11:54:12.462Z,27.80
2022-07-30T11:56:38.861Z,27.80
2022-07-30T11:59:05.267Z,27.79
2022-07-30T12:01:31.674Z,27.77
2022-07-30T12:03:58.088Z,27.81
2022-07-30T12:06:24.504Z,27.83
2022-07-30T12:08:53.893Z,27.86
2022-07-30T12:11:21.569Z,27.84
2022-07-30T12:13:47.968Z,27.88
2022-07-30T12:16:14.377Z,27.90
2022-07-30T12:18:40.781Z,27.91
2022-07-30T12:21:07.184Z,27.92
2022-07-30T12:23:33.594Z,27.92
2022-07-30T12:26:00.012Z,27.93
2022-07-30T12:28:26.425Z,27.90
2022-07-30T12:30:52.831Z,27.94
2022-07-30T12:33:19.232Z,27.95
2022-07-30T12:35:45.641Z,27.99
2022-07-30T12:38:12.062Z,28.00
2022-07-30T12:40:38.464Z,27.99
2022-07-30T12:43:04.883Z,28.02
2022-07-30T12:45:52.085Z,28.03
2022-07-30T12:48:20.735Z,28.01
2022-07-30T12:50:48.536Z,27.95
2022-07-30T12:53:14.952Z,27.98
2022-07-30T12:55:41.351Z,27.93
2022-07-30T12:58:08.995Z,27.95
2022-07-30T13:00:35.647Z,27.97
2022-07-30T13:03:02.054Z,27.98
2022-07-30T13:05:28.559Z,28.00
2022-07-30T13:07:54.998Z,28.01
2022-07-30T13:10:21.414Z,28.01
2022-07-30T13:12:47.829Z,28.03
2022-07-30T13:15:14.330Z,28.06
2022-07-30T13:17:40.743Z,28.09
2022-07-30T13:20:07.191Z,28.10
2022-07-30T13:22:33.620Z,28.09
2022-07-30T13:25:00.030Z,28.08
2022-07-30T13:27:26.443Z,28.09
2022-07-30T13:29:52.854Z,28.09
2022-07-30T13:32:19.291Z,28.10
2022-07-30T13:34:45.692Z,28.09
2022-07-30T13:37:12.101Z,28.10
2022-07-30T13:39:38.508Z,28.13
2022-07-30T13:42:04.914Z,28.14
2022-07-30T13:44:31.327Z,28.13
2022-07-30T13:47:01.715Z,28.14
2022-07-30T13:49:28.626Z,28.14
2022-07-30T13:51:56.673Z,28.13
2022-07-30T13:54:23.113Z,28.15
2022-07-30T13:56:49.527Z,28.17
2022-07-30T13:59:15.962Z,28.16
2022-07-30T14:01:42.411Z,28.18
2022-07-30T14:04:08.879Z,28.16
2022-07-30T14:06:35.282Z,28.21
2022-07-30T14:09:01.784Z,28.22
2022-07-30T14:11:28.190Z,28.22
2022-07-30T14:13:54.582Z,28.22
2022-07-30T14:16:43.674Z,28.23
2022-07-30T14:19:07.431Z,28.25
2022-07-30T14:21:33.840Z,28.25
2022-07-30T14:24:00.235Z,28.26
2022-07-30T14:26:36.302Z,28.26
2022-07-30T14:29:03.085Z,28.25
2022-07-30T14:31:29.587Z,28.23
2022-07-30T14:33:55.984Z,28.27
2022-07-30T14:36:22.386Z,28.28
2022-07-30T14:38:48.891Z,28.28
2022-07-30T14:41:15.302Z,28.22
2022-07-30T14:43:41.715Z,28.24
2022-07-30T14:46:08.132Z,28.25
2022-07-30T14:48:34.537Z,28.26
2022-07-30T14:51:15.979Z,28.20
2022-07-30T14:53:47.292Z,28.19
2022-07-30T14:56:13.838Z,28.25
2022-07-30T14:58:40.642Z,28.27
2022-07-30T15:01:16.025Z,28.30
2022-07-30T15:03:43.172Z,28.34
2022-07-30T15:06:09.593Z,28.35
2022-07-30T15:08:36.014Z,28.35
2022-07-30T15:11:02.697Z,28.38
2022-07-30T15:13:32.468Z,28.44
2022-07-30T15:15:58.944Z,28.44
2022-07-30T15:18:25.361Z,28.45
2022-07-30T15:20:51.761Z,28.45
2022-07-30T15:23:18.155Z,28.46
2022-07-30T15:25:44.573Z,28.45
2022-07-30T15:28:10.967Z,28.45
2022-07-30T15:30:37.373Z,28.42
2022-07-30T15:33:03.776Z,28.38
2022-07-30T15:35:30.211Z,28.46
2022-07-30T15:37:58.363Z,28.48
2022-07-30T15:40:24.771Z,28.50
2022-07-30T15:42:51.181Z,28.52
2022-07-30T15:45:18.408Z,28.58
2022-07-30T15:47:45.171Z,28.59
2022-07-30T15:50:11.578Z,28.61
2022-07-30T15:52:38.006Z,28.63
2022-07-30T15:55:04.415Z,28.65
2022-07-30T15:57:30.816Z,28.68
2022-07-30T15:59:57.281Z,28.68
2022-07-30T16:02:23.745Z,28.73
2022-07-30T16:04:50.146Z,28.72
2022-07-30T16:07:19.160Z,28.71
2022-07-30T16:09:45.565Z,28.68
2022-07-30T16:12:11.989Z,28.68
2022-07-30T16:14:38.396Z,28.70
2022-07-30T16:17:04.819Z,28.65
2022-07-30T16:19:31.237Z,28.73
2022-07-30T16:21:57.638Z,28.74
2022-07-30T16:24:24.040Z,28.73
2022-07-30T16:26:50.454Z,28.80
2022-07-30T16:29:16.862Z,28.82
2022-07-30T16:31:43.272Z,28.80
2022-07-30T16:34:09.678Z,28.84
2022-07-30T16:36:36.079Z,28.82
2022-07-30T16:39:02.488Z,28.84
2022-07-30T16:41:28.894Z,28.84
2022-07-30T16:43:55.312Z,28.81
2022-07-30T16:46:21.734Z,28.83
2022-07-30T16:48:50.493Z,28.83
2022-07-30T16:51:17.158Z,28.84
2022-07-30T16:53:43.565Z,28.82
2022-07-30T16:56:09.965Z,28.82
2022-07-30T16:58:36.390Z,28.82
2022-07-30T17:01:02.839Z,28.83
2022-07-30T17:03:29.274Z,28.82
2022-07-30T17:05:55.695Z,28.75
2022-07-30T17:08:24.822Z,28.79
2022-07-30T17:10:51.741Z,28.82
2022-07-30T17:13:18.146Z,28.83
2022-07-30T17:15:45.542Z,28.82
2022-07-30T17:18:13.421Z,28.82
2022-07-30T17:20:39.852Z,28.84
2022-07-30T17:23:06.252Z,28.82
2022-07-30T17:25:32.652Z,28.84
2022-07-30T17:27:59.055Z,28.88
2022-07-30T17:30:25.465Z,28.91
2022-07-30T17:32:51.881Z,28.90
2022-07-30T17:35:18.270Z,28.90
2022-07-30T17:37:44.678Z,28.92
2022-07-30T17:40:29.868Z,28.91
2022-07-30T17:42:57.483Z,28.93
2022-07-30T17:45:23.901Z,28.96
2022-07-30T17:47:50.309Z,28.96
2022-07-30T17:50:16.734Z,28.98
2022-07-30T17:52:43.144Z,28.99
2022-07-30T17:55:09.550Z,29.03
2022-07-30T17:57:36.050Z,29.03
2022-07-30T18:00:02.464Z,29.04
2022-07-30T18:02:29.289Z,29.05
2022-07-30T18:04:56.498Z,29.03
2022-07-30T18:07:23.353Z,29.01
2022-07-30T18:09:49.793Z,29.03
2022-07-30T18:12:18.951Z,28.98
2022-07-30T18:14:45.353Z,28.97
2022-07-30T18:17:14.402Z,28.98
2022-07-30T18:19:41.106Z,28.92
2022-07-30T18:22:07.543Z,28.89
2022-07-30T18:24:33.968Z,28.87
2022-07-30T18:27:06.999Z,28.83
2022-07-30T18:29:33.418Z,28.81
2022-07-30T18:32:00.217Z,28.78
2022-07-30T18:34:26.890Z,28.78
2022-07-30T18:36:53.308Z,28.78
2022-07-30T18:39:19.751Z,28.76
2022-07-30T18:41:46.242Z,28.77
2022-07-30T18:44:12.650Z,28.75
2022-07-30T18:46:39.058Z,28.72
2022-07-30T18:49:21.205Z,28.76
2022-07-30T18:51:51.862Z,28.75
2022-07-30T18:54:18.568Z,28.74
2022-07-30T18:56:44.995Z,28.73
2022-07-30T18:59:11.430Z,28.73
2022-07-30T19:01:37.914Z,28.73
2022-07-30T19:04:05.501Z,28.67
2022-07-30T19:06:31.935Z,28.68
2022-07-30T19:08:58.386Z,28.65
2022-07-30T19:11:24.784Z,28.66
2022-07-30T19:13:51.185Z,28.59
2022-07-30T19:16:17.596Z,28.59
2022-07-30T19:18:44.007Z,28.59
2022-07-30T19:21:14.040Z,28.57
2022-07-30T19:23:40.720Z,28.64
2022-07-30T19:26:07.119Z,28.59
2022-07-30T19:28:33.518Z,28.63
2022-07-30T19:30:59.918Z,28.62
2022-07-30T19:33:26.333Z,28.63
2022-07-30T19:35:52.767Z,28.59
2022-07-30T19:38:21.814Z,28.64
2022-07-30T19:40:50.123Z,28.58
2022-07-30T19:43:16.537Z,28.60
2022-07-30T19:45:47.567Z,28.64
2022-07-30T19:48:31.736Z,28.56
2022-07-30T19:50:58.953Z,28.59
2022-07-30T19:53:25.378Z,28.55
2022-07-30T19:55:51.775Z,28.53
2022-07-30T19:58:18.765Z,28.49
2022-07-30T20:00:49.522Z,28.50
2022-07-30T20:03:16.308Z,28.49
2022-07-30T20:05:54.907Z,28.45
2022-07-30T20:08:25.956Z,28.42
2022-07-30T20:10:52.375Z,28.43
2022-07-30T20:13:18.785Z,28.51
2022-07-30T20:15:45.994Z,28.50
2022-07-30T20:18:12.714Z,28.53
2022-07-30T20:20:41.112Z,28.52
2022-07-30T20:23:08.003Z,28.46
2022-07-30T20:25:37.145Z,28.54
2022-07-30T20:28:03.852Z,28.51
2022-07-30T20:30:31.011Z,28.52
2022-07-30T20:32:57.435Z,28.50
2022-07-30T20:35:24.748Z,28.50
2022-07-30T20:37:54.799Z,28.32
2022-07-30T20:40:38.501Z,28.38
2022-07-30T20:43:06.199Z,28.44
2022-07-30T20:45:40.351Z,28.45
2022-07-30T20:48:07.160Z,28.46
2022-07-30T20:50:43.557Z,28.47
2022-07-30T20:53:10.704Z,28.42
2022-07-30T20:55:40.326Z,28.43
2022-07-30T20:58:16.556Z,28.40
2022-07-30T21:00:49.665Z,28.41
2022-07-30T21:03:16.436Z,28.28
2022-07-30T21:05:42.872Z,28.26
2022-07-30T21:08:09.277Z,28.33
2022-07-30T21:10:39.196Z,28.36
2022-07-30T21:13:07.625Z,28.35
2022-07-30T21:15:34.180Z,28.23
2022-07-30T21:18:02.130Z,28.24
2022-07-30T21:20:29.416Z,28.25
2022-07-30T21:22:55.832Z,28.24
2022-07-30T21:25:23.533Z,28.39
2022-07-30T21:27:59.272Z,28.44
2022-07-30T21:30:26.253Z,28.47
2022-07-30T21:32:53.130Z,28.46
2022-07-30T21:35:19.788Z,28.43
2022-07-30T21:37:46.218Z,28.35
2022-07-30T21:40:13.147Z,28.31
2022-07-30T21:42:48.263Z,28.32
2022-07-30T21:45:14.874Z,28.28
2022-07-30T21:47:41.364Z,28.37
2022-07-30T21:50:14.241Z,28.33
2022-07-30T21:52:42.636Z,28.25
2022-07-30T21:55:09.054Z,28.30
2022-07-30T21:57:39.800Z,28.26
2022-07-30T22:00:06.217Z,28.26
2022-07-30T22:02:35.531Z,28.02
2022-07-30T22:05:02.794Z,28.30
2022-07-30T22:07:29.187Z,28.33
2022-07-30T22:09:55.598Z,28.27
2022-07-30T22:12:22.007Z,28.26
2022-07-30T22:14:55.220Z,28.34
2022-07-30T22:17:23.786Z,28.30
2022-07-30T22:20:03.545Z,28.43
2022-07-30T22:22:35.515Z,28.42
2022-07-30T22:25:02.488Z,28.44
2022-07-30T22:27:39.765Z,28.40
2022-07-30T22:30:19.629Z,28.40
2022-07-30T22:32:46.735Z,28.34
2022-07-30T22:35:16.447Z,28.38
2022-07-30T22:37:42.894Z,28.42
2022-07-30T22:40:12.431Z,28.35
2022-07-30T22:42:49.884Z,28.38
2022-07-30T22:45:36.026Z,28.35
2022-07-30T22:48:14.345Z,28.31
2022-07-30T22:50:41.049Z,28.37
2022-07-30T22:53:23.326Z,28.33
2022-07-30T22:55:54.697Z,28.37
2022-07-30T22:58:22.045Z,28.38
2022-07-30T23:00:52.882Z,28.26
2022-07-30T23:03:19.370Z,28.35
2022-07-30T23:05:56.323Z,28.37
2022-07-30T23:08:29.995Z,28.27
2022-07-30T23:10:56.905Z,28.25
2022-07-30T23:13:23.313Z,28.27
2022-07-30T23:15:49.719Z,28.20
2022-07-30T23:18:16.141Z,28.24
2022-07-30T23:20:42.554Z,28.11
2022-07-30T23:23:08.952Z,28.14
2022-07-30T23:25:39.017Z,28.14
2022-07-30T23:28:05.648Z,28.10
2022-07-30T23:30:34.011Z,28.07
2022-07-30T23:33:00.854Z,28.09
2022-07-30T23:35:27.244Z,28.09
2022-07-30T23:37:53.647Z,28.07
2022-07-30T23:40:20.070Z,28.05
2022-07-30T23:42:46.478Z,28.03
2022-07-30T23:45:12.878Z,28.07
2022-07-30T23:47:58.018Z,28.03
2022-07-30T23:50:25.688Z,28.04
2022-07-30T23:52:52.107Z,28.03
2022-07-30T23:55:18.534Z,27.95
2022-07-30T23:57:44.950Z,28.02
